Time;durP1;ratioP1;P1;durP2;ratioP2;P2;SDS_P1;SDS_P2;PMS_P1;PMS_P2;Temp;Humidity;BMP_temperature;BMP_pressure;BME280_temperature;BME280_humidity;BME280_pressure;Samples;Min_cycle;Max_cycle;Signal;HPM_P1;HPM_P2
2021/08/14 00:03:17;;;;;;;7.45;6.18;;;;;;;21.83;72.95;100749.53;10320620;28;20480;-63
2021/08/14 00:08:19;;;;;;;8.77;5.72;;;;;;;21.85;72.91;100743.91;10303478;28;20128;-62
2021/08/14 00:13:20;;;;;;;8.85;6.10;;;;;;;21.76;71.86;100740.44;10305250;28;20046;-63
2021/08/14 00:18:22;;;;;;;6.63;6.03;;;;;;;21.77;72.21;100747.56;10303134;28;20129;-63
2021/08/14 00:23:23;;;;;;;7.78;6.82;;;;;;;21.69;72.51;100739.50;10305134;28;20074;-63
2021/08/14 00:28:24;;;;;;;8.88;7.28;;;;;;;21.59;72.18;100733.50;10301928;28;20070;-63
2021/08/14 00:33:26;;;;;;;6.95;5.97;;;;;;;21.57;72.43;100732.84;10306517;28;20116;-61
2021/08/14 00:38:27;;;;;;;7.93;7.10;;;;;;;21.48;73.62;100737.47;10306152;28;20066;-61
2021/08/14 00:43:29;;;;;;;7.43;5.72;;;;;;;21.49;72.95;100737.28;10305745;28;20062;-63
2021/08/14 00:48:31;;;;;;;6.82;6.13;;;;;;;21.46;72.42;100726.81;10304938;28;20070;-63
2021/08/14 00:53:33;;;;;;;7.93;6.50;;;;;;;21.41;72.79;100726.53;10298567;28;20070;-63
2021/08/14 00:58:35;;;;;;;8.10;6.60;;;;;;;21.39;73.05;100720.44;10299141;28;20133;-62
2021/08/14 01:03:36;;;;;;;7.75;6.35;;;;;;;21.35;73.07;100728.09;10319064;28;20070;-63
2021/08/14 01:08:38;;;;;;;7.60;6.82;;;;;;;21.28;72.89;100710.91;10304713;28;20066;-63
2021/08/14 01:13:40;;;;;;;7.95;6.43;;;;;;;21.20;72.90;100708.28;10304772;28;20084;-64
2021/08/14 01:18:44;;;;;;;6.80;6.07;;;;;;;21.18;72.86;100711.16;10296257;28;20066;-62
2021/08/14 01:23:49;;;;;;;9.20;7.47;;;;;;;21.16;73.63;100710.50;10293918;28;20137;-62
2021/08/14 01:28:51;;;;;;;7.87;7.07;;;;;;;21.16;74.36;100706.94;10302538;28;20069;-63
2021/08/14 01:33:54;;;;;;;8.77;7.97;;;;;;;21.12;74.71;100711.91;10296276;28;20124;-63
2021/08/14 01:38:59;;;;;;;8.90;8.00;;;;;;;21.08;74.70;100721.41;10316451;28;20051;-63
2021/08/14 01:44:07;;;;;;;9.20;8.10;;;;;;;21.03;75.44;100718.38;10303538;28;20073;-64
2021/08/14 01:49:09;;;;;;;9.23;8.00;;;;;;;20.93;75.43;100713.22;10299148;28;20054;-63
2021/08/14 01:54:10;;;;;;;9.48;7.53;;;;;;;20.88;74.00;100717.47;10317484;28;20082;-62
2021/08/14 01:59:12;;;;;;;10.35;7.22;;;;;;;20.71;74.53;100703.25;10303529;28;24379;-62
2021/08/14 02:04:13;;;;;;;7.43;6.72;;;;;;;20.76;74.23;100711.66;10303026;28;20077;-62
2021/08/14 02:09:15;;;;;;;8.18;7.38;;;;;;;20.70;74.66;100710.50;10298522;28;20284;-62
2021/08/14 02:14:17;;;;;;;10.45;6.95;;;;;;;20.65;74.67;100712.88;10302344;28;20523;-63
2021/08/14 02:19:18;;;;;;;9.00;8.10;;;;;;;20.54;75.40;100722.22;10317198;28;20054;-62
2021/08/14 02:24:20;;;;;;;8.32;7.32;;;;;;;20.39;75.83;100715.91;10302083;28;20050;-63
2021/08/14 02:29:21;;;;;;;11.00;8.43;;;;;;;20.31;75.79;100714.91;10286969;28;20795;-62
2021/08/14 02:34:23;;;;;;;9.75;7.78;;;;;;;20.30;75.89;100712.38;10291205;28;20746;-62
2021/08/14 02:39:24;;;;;;;9.68;7.40;;;;;;;20.31;76.01;100725.72;10294688;28;20046;-62
2021/08/14 02:44:25;;;;;;;10.38;7.78;;;;;;;20.28;75.85;100722.50;10300128;28;20074;-62
2021/08/14 02:49:27;;;;;;;7.80;7.00;;;;;;;20.26;75.64;100719.16;10302309;28;20075;-62
2021/08/14 02:54:28;;;;;;;8.52;7.72;;;;;;;20.24;75.50;100723.91;10301316;28;20527;-61
2021/08/14 02:59:30;;;;;;;9.57;8.32;;;;;;;20.25;75.61;100729.13;10302055;28;20054;-62
2021/08/14 03:04:31;;;;;;;10.23;7.25;;;;;;;20.21;75.41;100722.38;10301432;28;20183;-62
2021/08/14 03:09:32;;;;;;;8.00;6.82;;;;;;;20.17;75.28;100722.91;10301365;28;20132;-63
2021/08/14 03:14:38;;;;;;;10.75;7.10;;;;;;;20.19;75.19;100719.03;10301591;28;20145;-61
2021/08/14 03:19:39;;;;;;;8.48;7.63;;;;;;;20.26;75.11;100728.09;10300482;28;20065;-62
2021/08/14 03:24:41;;;;;;;8.25;7.45;;;;;;;20.26;75.32;100725.41;10301167;28;20475;-62
2021/08/14 03:29:42;;;;;;;8.90;7.85;;;;;;;20.18;75.41;100719.22;10294248;28;20109;-62
2021/08/14 03:34:43;;;;;;;8.35;7.55;;;;;;;20.22;75.74;100720.53;10288204;28;20047;-63
2021/08/14 03:39:47;;;;;;;9.05;8.07;;;;;;;20.22;75.92;100710.56;10301768;28;20053;-62
2021/08/14 03:44:49;;;;;;;9.48;7.70;;;;;;;20.26;76.23;100721.88;10300814;28;20360;-62
2021/08/14 03:49:50;;;;;;;9.48;8.48;;;;;;;20.24;75.88;100715.81;10308725;28;20135;-62
2021/08/14 03:54:51;;;;;;;10.68;8.60;;;;;;;20.14;76.38;100706.00;10325438;22;20495;-53
2021/08/14 03:59:53;;;;;;;9.75;8.43;;;;;;;20.19;77.00;100718.16;10341877;28;20132;-53
2021/08/14 04:04:54;;;;;;;8.95;8.05;;;;;;;20.17;78.02;100717.50;10341699;28;20326;-53
2021/08/14 04:09:56;;;;;;;9.60;8.00;;;;;;;20.16;76.03;100718.53;10343492;28;20046;-54
2021/08/14 04:14:59;;;;;;;8.93;8.13;;;;;;;20.14;75.57;100726.81;10347050;28;20077;-53
2021/08/14 04:20:05;;;;;;;9.18;8.13;;;;;;;20.11;75.80;100717.19;10347667;28;20128;-52
2021/08/14 04:25:08;;;;;;;10.27;9.38;;;;;;;20.05;75.75;100726.00;10346743;28;20108;-53
2021/08/14 04:30:10;;;;;;;8.55;7.75;;;;;;;19.80;75.57;100689.25;10361935;28;20340;-53
2021/08/14 04:35:13;;;;;;;9.13;8.30;;;;;;;19.94;76.12;100712.88;10345781;28;20066;-53
2021/08/14 04:40:15;;;;;;;;;;;;;;;19.91;76.26;100710.50;10357688;28;20049;-53
2021/08/14 04:45:17;;;;;;;11.30;8.48;;;;;;;19.86;76.03;100704.78;10346061;28;19999;-56
2021/08/14 04:50:18;;;;;;;10.32;8.15;;;;;;;19.94;75.30;100699.34;10354072;28;20077;-53
2021/08/14 04:55:20;;;;;;;10.52;8.55;;;;;;;19.91;75.46;100697.00;10345463;28;20465;-53
2021/08/14 05:00:21;;;;;;;10.10;8.20;;;;;;;19.92;75.57;100698.66;10345511;28;20077;-53
2021/08/14 05:05:22;;;;;;;9.02;8.13;;;;;;;19.93;75.48;100697.66;10334788;28;20348;-53
2021/08/14 05:10:24;;;;;;;9.25;8.25;;;;;;;19.95;75.63;100699.19;10342028;28;20439;-52
2021/08/14 05:15:25;;;;;;;10.15;9.02;;;;;;;19.99;75.81;100693.44;10336841;28;20637;-52
2021/08/14 05:20:27;;;;;;;39.90;34.15;;;;;;;19.92;76.24;100691.44;10343529;28;20038;-53
2021/08/14 05:25:28;;;;;;;12.52;10.38;;;;;;;19.86;75.93;100689.44;10338116;28;20473;-53
2021/08/14 05:30:30;;;;;;;10.52;9.48;;;;;;;19.82;76.23;100703.47;10344442;28;20111;-53
2021/08/14 05:35:35;;;;;;;9.90;8.63;;;;;;;19.88;77.04;100705.47;10336744;28;20057;-53
2021/08/14 05:40:36;;;;;;;10.68;9.57;;;;;;;19.99;77.04;100710.47;10337490;28;20100;-51
2021/08/14 05:45:38;;;;;;;13.30;10.98;;;;;;;19.99;77.13;100696.13;10339873;28;20085;-51
2021/08/14 05:50:39;;;;;;;12.13;10.95;;;;;;;20.10;77.59;100699.31;10344899;28;20385;-52
2021/08/14 05:55:41;;;;;;;11.38;10.20;;;;;;;20.17;77.36;100690.50;10344848;28;20050;-53
2021/08/14 06:00:42;;;;;;;12.07;10.95;;;;;;;20.38;76.90;100704.22;10342424;28;20131;-58
2021/08/14 06:05:44;;;;;;;11.98;10.88;;;;;;;20.48;76.90;100714.84;10341219;28;20129;-52
2021/08/14 06:10:49;;;;;;;13.68;12.18;;;;;;;20.54;76.76;100711.41;10336777;28;20054;-53
2021/08/14 06:15:51;;;;;;;13.75;12.35;;;;;;;20.65;77.08;100712.88;10343530;28;20098;-54
2021/08/14 06:20:52;;;;;;;12.95;11.55;;;;;;;20.77;77.04;100708.75;10343421;28;20062;-52
2021/08/14 06:25:53;;;;;;;13.23;12.02;;;;;;;20.88;76.59;100710.19;10357590;28;20058;-55
2021/08/14 06:30:56;;;;;;;13.60;12.45;;;;;;;21.05;76.44;100715.50;10337162;28;20053;-53
2021/08/14 06:35:57;;;;;;;13.18;11.55;;;;;;;21.13;76.08;100712.72;10349893;28;20065;-54
2021/08/14 06:40:59;;;;;;;13.48;12.18;;;;;;;21.21;75.74;100706.41;10357507;28;20096;-53
2021/08/14 06:46:00;;;;;;;14.05;12.77;;;;;;;21.35;75.81;100705.63;10341724;28;20153;-53
2021/08/14 06:51:02;;;;;;;13.52;12.32;;;;;;;21.53;75.19;100716.97;10357258;28;20061;-53
2021/08/14 06:56:04;;;;;;;16.20;12.60;;;;;;;21.67;75.14;100709.06;10342135;28;20073;-53
2021/08/14 07:01:05;;;;;;;13.38;12.07;;;;;;;21.89;74.14;100704.59;10342030;28;20062;-53
2021/08/14 07:06:08;;;;;;;13.30;12.00;;;;;;;21.91;73.01;100705.22;10341861;28;20116;-53
2021/08/14 07:11:09;;;;;;;14.05;11.50;;;;;;;22.08;73.26;100711.28;10338171;28;20057;-52
2021/08/14 07:16:11;;;;;;;18.35;12.52;;;;;;;22.10;71.29;100697.53;10346793;28;20123;-54
2021/08/14 07:21:13;;;;;;;11.48;10.38;;;;;;;22.22;71.02;100705.03;10343350;28;20046;-54
2021/08/14 07:26:14;;;;;;;12.15;10.95;;;;;;;22.51;71.54;100711.44;10347569;28;20069;-54
2021/08/14 07:31:16;;;;;;;11.70;10.48;;;;;;;22.60;69.33;100706.75;10340775;28;20061;-52
2021/08/14 07:36:17;;;;;;;12.48;11.27;;;;;;;22.80;70.09;100698.81;10341282;28;20065;-53
2021/08/14 07:41:19;;;;;;;14.75;12.07;;;;;;;22.97;67.91;100698.53;10348293;28;20057;-55
2021/08/14 07:46:20;;;;;;;11.88;10.55;;;;;;;23.15;68.80;100696.25;10348889;28;20050;-53
2021/08/14 07:51:22;;;;;;;10.05;9.00;;;;;;;23.39;66.60;100697.72;10347794;28;20194;-54
2021/08/14 07:56:24;;;;;;;11.15;8.35;;;;;;;23.66;66.13;100703.34;10361942;28;20127;-53
2021/08/14 08:01:25;;;;;;;9.77;8.87;;;;;;;23.73;63.57;100696.03;10360854;28;20084;-54
2021/08/14 08:06:27;;;;;;;9.55;8.63;;;;;;;23.99;63.02;100698.13;10346890;28;20442;-54
2021/08/14 08:11:28;;;;;;;9.43;8.63;;;;;;;24.16;61.14;100693.16;10348842;28;20630;-53
2021/08/14 08:16:30;;;;;;;11.18;8.15;;;;;;;24.42;61.61;100693.47;10362221;28;20129;-53
2021/08/14 08:21:32;;;;;;;7.70;6.88;;;;;;;24.73;60.78;100700.31;10345640;28;20048;-53
2021/08/14 08:26:33;;;;;;;6.72;6.13;;;;;;;24.74;59.17;100685.63;10347423;28;20131;-54
2021/08/14 08:31:35;;;;;;;7.97;7.18;;;;;;;25.15;57.97;100685.47;10349350;28;20207;-53
2021/08/14 08:36:36;;;;;;;8.05;7.25;;;;;;;25.67;56.77;100677.50;10347018;28;20129;-54
2021/08/14 08:41:38;;;;;;;10.82;8.15;;;;;;;25.91;53.86;100672.38;10343354;28;20096;-52
2021/08/14 08:46:39;;;;;;;7.78;6.97;;;;;;;26.19;54.04;100669.38;10346705;28;20077;-52
2021/08/14 08:51:41;;;;;;;7.25;6.55;;;;;;;25.99;54.46;100669.47;10346216;28;20560;-53
2021/08/14 08:56:44;;;;;;;7.30;6.60;;;;;;;26.17;54.79;100676.13;10346613;28;20045;-54
2021/08/14 09:01:45;;;;;;;6.25;5.65;;;;;;;26.55;55.67;100672.56;10345555;28;20667;-53
2021/08/14 09:06:47;;;;;;;7.38;6.68;;;;;;;26.75;54.02;100678.75;10344015;28;20060;-52
2021/08/14 09:11:50;;;;;;;7.57;6.87;;;;;;;26.74;54.11;100671.63;10345433;28;20142;-54
2021/08/14 09:17:08;;;;;;;7.57;6.45;;;;;;;27.14;53.88;100670.47;10334611;28;20101;-52
2021/08/14 09:22:19;;;;;;;7.68;6.20;;;;;;;27.38;51.83;100657.03;10339821;28;20045;-52
2021/08/14 09:27:21;;;;;;;7.15;6.45;;;;;;;27.36;52.41;100651.81;10342462;28;20503;-52
2021/08/14 09:32:26;;;;;;;7.25;6.13;;;;;;;27.19;53.27;100650.66;10345546;28;20061;-53
2021/08/14 09:37:36;;;;;;;6.88;6.03;;;;;;;27.36;51.64;100646.34;10343723;28;20100;-52
2021/08/14 09:42:52;;;;;;;7.65;5.45;;;;;;;27.66;51.38;100640.16;10343445;28;20038;-53
2021/08/14 09:47:55;;;;;;;6.85;5.43;;;;;;;27.82;50.18;100639.53;10333819;28;20046;-53
2021/08/14 09:53:35;;;;;;;5.87;5.27;;;;;;;28.16;48.44;100639.97;10343993;28;20054;-53
2021/08/14 09:58:38;;;;;;;5.50;4.88;;;;;;;28.48;47.50;100637.03;10403560;23;20044;-62
2021/08/14 10:03:40;;;;;;;6.82;4.47;;;;;;;29.15;46.26;100630.47;10414881;28;20114;-63
2021/08/14 10:08:42;;;;;;;4.82;4.15;;;;;;;29.00;43.32;100625.47;10413540;28;20479;-61
2021/08/14 10:13:45;;;;;;;6.10;4.68;;;;;;;29.04;43.74;100614.88;10416028;28;20114;-61
2021/08/14 10:18:46;;;;;;;6.32;3.95;;;;;;;29.56;43.87;100609.53;10421388;28;20131;-62
2021/08/14 10:23:53;;;;;;;6.27;3.77;;;;;;;30.05;38.31;100606.41;10417477;28;20048;-62
2021/08/14 10:28:57;;;;;;;5.28;4.78;;;;;;;30.61;37.50;100597.56;10421065;28;20341;-62
2021/08/14 10:34:11;;;;;;;3.38;2.90;;;;;;;35.40;28.11;100588.97;10437887;28;20150;-63
2021/08/14 10:39:20;;;;;;;3.38;2.90;;;;;;;37.43;25.11;100587.25;10428094;28;21497;-61
2021/08/14 10:44:41;;;;;;;2.63;2.42;;;;;;;34.52;29.18;100576.34;10427364;28;20098;-65
2021/08/14 10:49:46;;;;;;;3.08;2.70;;;;;;;33.69;30.02;100567.03;10423525;28;20126;-64
2021/08/14 10:54:54;;;;;;;3.35;2.42;;;;;;;33.51;30.27;100571.09;10420605;28;20049;-62
2021/08/14 10:59:58;;;;;;;4.88;2.78;;;;;;;33.88;29.38;100563.78;10424739;28;20115;-63
2021/08/14 11:05:02;;;;;;;5.22;2.53;;;;;;;33.99;28.43;100559.97;10431732;28;20106;-60
2021/08/14 11:10:09;;;;;;;2.85;2.65;;;;;;;35.56;27.07;100550.97;10425829;28;20110;-63
2021/08/14 11:15:16;;;;;;;5.72;2.40;;;;;;;35.31;24.67;100557.47;10427327;28;20056;-62
2021/08/14 11:20:21;;;;;;;2.17;1.98;;;;;;;36.04;23.98;100541.34;10422798;28;20048;-60
2021/08/14 11:25:31;;;;;;;2.67;2.35;;;;;;;37.17;22.30;100528.44;10424717;28;20072;-63
2021/08/14 11:30:55;;;;;;;4.28;2.53;;;;;;;40.20;20.97;100522.25;10438999;28;20041;-62
2021/08/14 11:36:15;;;;;;;3.38;2.42;;;;;;;40.94;20.55;100521.75;10435153;28;20040;-61
2021/08/14 11:41:21;;;;;;;3.10;2.78;;;;;;;39.14;22.68;100511.22;10433183;28;20528;-61
2021/08/14 11:46:24;;;;;;;2.90;2.60;;;;;;;37.49;24.17;100505.56;10430257;28;20106;-62
2021/08/14 11:51:27;;;;;;;3.08;2.47;;;;;;;36.49;25.50;100503.31;10415660;28;20161;-60
2021/08/14 11:56:29;;;;;;;3.13;2.75;;;;;;;35.84;26.83;100503.53;10420558;28;20494;-58
2021/08/14 12:01:31;;;;;;;4.57;2.78;;;;;;;35.00;28.40;100491.16;10414775;28;20073;-60
2021/08/14 12:06:34;;;;;;;2.97;2.67;;;;;;;35.02;28.03;100482.56;10418280;28;20095;-59
2021/08/14 12:11:35;;;;;;;3.13;2.92;;;;;;;34.86;29.02;100485.38;10420722;28;20041;-60
2021/08/14 12:16:42;;;;;;;4.95;3.72;;;;;;;34.93;27.79;100473.19;10421034;28;20080;-60
2021/08/14 12:21:45;;;;;;;3.80;3.00;;;;;;;35.16;28.27;100469.81;10438819;28;20654;-60
2021/08/14 12:26:46;;;;;;;3.65;3.00;;;;;;;34.90;28.21;100466.28;10414350;28;20068;-60
2021/08/14 12:31:50;;;;;;;3.92;3.25;;;;;;;34.48;28.44;100460.00;10422135;28;20045;-60
2021/08/14 12:37:10;;;;;;;3.75;3.08;;;;;;;34.05;28.84;100448.41;10422541;28;20462;-59
2021/08/14 12:42:21;;;;;;;3.17;2.88;;;;;;;33.87;29.45;100448.94;10423394;28;20071;-61
2021/08/14 12:47:31;;;;;;;4.07;3.00;;;;;;;33.70;28.88;100441.69;10421876;28;20103;-63
2021/08/14 12:52:32;;;;;;;3.10;2.80;;;;;;;33.71;28.52;100440.59;10423376;28;23799;-60
2021/08/14 12:57:34;;;;;;;3.13;2.67;;;;;;;33.56;29.66;100432.31;10420570;28;20241;-60
2021/08/14 13:02:35;;;;;;;3.35;3.05;;;;;;;33.29;28.64;100430.59;10422290;28;20098;-60
2021/08/14 13:07:37;;;;;;;3.33;3.00;;;;;;;33.01;29.63;100429.88;10416256;28;20041;-61
2021/08/14 13:12:57;;;;;;;3.38;2.90;;;;;;;33.35;30.45;100423.97;10412855;28;20146;-59
2021/08/14 13:18:15;;;;;;;3.67;3.20;;;;;;;33.50;28.29;100414.09;10419135;28;20417;-61
2021/08/14 13:23:17;;;;;;;4.25;3.85;;;;;;;33.19;28.72;100413.97;10413893;28;20049;-62
2021/08/14 13:28:18;;;;;;;2.97;2.67;;;;;;;32.87;29.69;100418.53;10412572;28;20539;-60
2021/08/14 13:33:20;;;;;;;;;;;;;;;32.38;29.78;100400.34;10416840;28;20106;-61
2021/08/14 13:38:21;;;;;;;4.60;2.50;;;;;;;32.55;30.03;100399.34;10414087;28;20614;-60
2021/08/14 13:43:23;;;;;;;;;;;;;;;32.74;29.18;100408.84;10413316;28;20535;-61
2021/08/14 13:48:24;;;;;;;4.00;2.83;;;;;;;32.73;28.27;100411.88;10422834;28;19921;-60
2021/08/14 13:53:25;;;;;;;3.78;2.85;;;;;;;32.49;29.64;100400.38;10411905;28;20319;-60
2021/08/14 13:58:27;;;;;;;5.35;2.95;;;;;;;32.36;29.52;100386.00;10412760;28;20045;-60
2021/08/14 14:03:28;;;;;;;2.72;2.33;;;;;;;32.36;30.47;100380.47;10424591;28;20140;-61
2021/08/14 14:08:30;;;;;;;;;;;;;;;32.26;29.84;100377.66;10415041;28;20052;-61
2021/08/14 14:13:31;;;;;;;3.43;2.80;;;;;;;32.02;30.94;100367.03;10410857;28;19937;-61
2021/08/14 14:18:33;;;;;;;4.70;2.90;;;;;;;32.02;31.16;100368.91;10418127;28;20162;-59
2021/08/14 14:23:34;;;;;;;4.28;2.60;;;;;;;32.02;31.19;100363.41;10414349;28;20049;-61
2021/08/14 14:28:36;;;;;;;5.38;2.90;;;;;;;31.84;31.25;100375.66;10412661;28;20053;-61
2021/08/14 14:33:38;;;;;;;3.15;2.85;;;;;;;31.58;30.78;100364.44;10423252;28;20061;-62
2021/08/14 14:38:49;;;;;;;4.40;3.28;;;;;;;31.21;31.10;100365.13;10416037;28;20040;-61
2021/08/14 14:43:51;;;;;;;3.03;2.72;;;;;;;31.10;31.25;100355.94;10430890;28;20490;-61
2021/08/14 14:48:52;;;;;;;2.95;2.75;;;;;;;31.11;31.69;100362.28;10425129;28;20087;-61
2021/08/14 14:53:54;;;;;;;6.55;3.35;;;;;;;31.08;31.76;100355.38;10411550;28;20067;-61
2021/08/14 14:58:55;;;;;;;;;;;;;;;30.90;32.07;100344.69;10415551;28;20119;-60
2021/08/14 15:03:57;;;;;;;3.78;2.92;;;;;;;30.87;32.04;100351.53;10431638;28;19990;-60
2021/08/14 15:08:58;;;;;;;4.82;3.08;;;;;;;30.80;32.10;100337.97;10414486;28;20061;-60
2021/08/14 15:14:03;;;;;;;4.10;3.25;;;;;;;30.72;32.44;100326.63;10413390;28;20227;-60
2021/08/14 15:19:04;;;;;;;4.30;3.38;;;;;;;30.71;32.76;100324.97;10421207;28;20040;-61
2021/08/14 15:24:05;;;;;;;4.10;2.97;;;;;;;30.70;33.30;100315.88;10413067;28;20076;-60
2021/08/14 15:29:07;;;;;;;3.53;3.23;;;;;;;30.66;32.66;100310.06;10412768;28;20131;-61
2021/08/14 15:34:08;;;;;;;5.57;3.53;;;;;;;30.59;32.32;100303.94;10423356;28;20111;-60
2021/08/14 15:39:10;;;;;;;3.93;3.50;;;;;;;30.61;32.82;100307.28;10420069;28;20053;-60
2021/08/14 15:44:11;;;;;;;3.50;2.93;;;;;;;30.57;32.62;100294.31;10422627;28;20334;-59
2021/08/14 15:49:14;;;;;;;4.20;3.28;;;;;;;30.48;32.33;100296.66;10425378;28;20959;-60
2021/08/14 15:54:16;;;;;;;3.33;2.78;;;;;;;30.36;32.63;100287.69;10418903;28;20132;-60
2021/08/14 15:59:17;;;;;;;3.27;2.97;;;;;;;30.35;33.10;100286.84;10404618;22;20049;-51
2021/08/14 16:04:19;;;;;;;4.83;3.13;;;;;;;30.26;32.29;100280.94;10371049;28;20470;-53
2021/08/14 16:09:20;;;;;;;3.42;2.60;;;;;;;30.30;33.17;100284.84;10354489;28;20407;-53
2021/08/14 16:14:22;;;;;;;7.88;4.00;;;;;;;30.26;32.98;100277.38;10349743;28;20050;-53
2021/08/14 16:19:24;;;;;;;4.38;2.67;;;;;;;30.16;33.29;100258.84;10353213;28;20070;-53
2021/08/14 16:24:25;;;;;;;3.00;2.80;;;;;;;30.25;33.70;100260.09;10354040;28;20053;-54
2021/08/14 16:29:26;;;;;;;3.90;2.77;;;;;;;30.25;33.76;100260.09;10348886;28;20774;-53
2021/08/14 16:34:28;;;;;;;3.53;2.70;;;;;;;30.14;33.88;100258.28;10348917;28;20057;-52
2021/08/14 16:39:29;;;;;;;4.17;3.53;;;;;;;30.11;34.20;100253.31;10349038;28;20053;-53
2021/08/14 16:44:31;;;;;;;6.37;3.43;;;;;;;30.06;33.86;100250.50;10349443;28;20045;-53
2021/08/14 16:49:32;;;;;;;3.53;3.23;;;;;;;30.00;33.99;100254.25;10348578;28;20349;-53
2021/08/14 16:54:34;;;;;;;4.30;3.50;;;;;;;29.96;34.45;100251.19;10348500;28;20069;-54
2021/08/14 16:59:35;;;;;;;5.38;3.38;;;;;;;29.95;34.77;100261.34;10352033;28;20042;-53
2021/08/14 17:04:37;;;;;;;3.17;2.70;;;;;;;29.90;34.90;100247.53;10346774;28;20073;-53
2021/08/14 17:09:38;;;;;;;4.57;3.33;;;;;;;29.80;34.69;100247.38;10345738;28;20124;-53
2021/08/14 17:14:40;;;;;;;3.13;2.87;;;;;;;29.76;34.97;100254.44;10348454;28;20068;-54
2021/08/14 17:19:41;;;;;;;6.03;4.17;;;;;;;29.73;34.59;100243.97;10348802;28;20415;-53
2021/08/14 17:24:43;;;;;;;3.80;3.50;;;;;;;29.58;34.35;100250.84;10345880;28;20289;-53
2021/08/14 17:29:44;;;;;;;4.10;3.40;;;;;;;29.42;34.38;100236.06;10344783;28;20042;-52
2021/08/14 17:34:46;;;;;;;4.00;3.20;;;;;;;29.30;34.50;100234.50;10360435;28;20133;-53
2021/08/14 17:39:48;;;;;;;3.40;3.10;;;;;;;29.23;34.62;100238.22;10344137;28;20058;-53
2021/08/14 17:44:49;;;;;;;4.53;2.90;;;;;;;29.07;34.25;100231.59;10344670;28;20073;-53
2021/08/14 17:49:50;;;;;;;4.82;2.47;;;;;;;28.94;34.98;100231.09;10343880;28;20067;-53
2021/08/14 17:54:52;;;;;;;4.33;3.07;;;;;;;28.81;34.72;100235.81;10343769;28;20499;-53
2021/08/14 17:59:53;;;;;;;3.38;2.80;;;;;;;28.68;35.29;100225.13;10343145;28;20734;-53
2021/08/14 18:04:54;;;;;;;3.03;2.75;;;;;;;28.60;35.35;100223.63;10342515;28;20506;-53
2021/08/14 18:09:56;;;;;;;7.75;3.38;;;;;;;28.57;36.03;100227.66;10349875;28;20142;-58
2021/08/14 18:14:57;;;;;;;4.13;2.88;;;;;;;28.43;36.13;100223.50;10351079;28;20107;-53
2021/08/14 18:20:00;;;;;;;3.75;3.13;;;;;;;28.35;36.26;100224.72;10343099;28;20054;-53
2021/08/14 18:25:03;;;;;;;3.90;3.20;;;;;;;28.21;36.65;100229.66;10342179;28;20069;-53
2021/08/14 18:30:05;;;;;;;;;;;;;;;28.06;37.27;100231.22;10343293;28;20038;-53
2021/08/14 18:35:07;;;;;;;6.47;3.47;;;;;;;28.06;37.58;100236.69;10334028;28;19960;-53
2021/08/14 18:40:09;;;;;;;5.17;3.30;;;;;;;27.98;37.88;100229.69;10341111;28;20066;-52
2021/08/14 18:45:10;;;;;;;5.15;3.28;;;;;;;27.82;38.66;100234.78;10347240;28;20288;-53
2021/08/14 18:50:12;;;;;;;3.97;3.58;;;;;;;27.77;38.70;100231.91;10346206;28;20096;-52
2021/08/14 18:55:14;;;;;;;3.83;3.13;;;;;;;27.68;39.23;100234.19;10354886;28;20050;-51
2021/08/14 19:00:16;;;;;;;4.10;3.80;;;;;;;27.58;38.80;100238.56;10350857;28;20132;-53
2021/08/14 19:05:18;;;;;;;5.35;3.45;;;;;;;27.48;39.20;100245.44;10345238;28;20066;-53
2021/08/14 19:10:19;;;;;;;3.77;3.47;;;;;;;27.38;39.58;100242.47;10348710;28;20506;-57
2021/08/14 19:15:21;;;;;;;7.03;3.42;;;;;;;27.30;39.94;100242.78;10355627;28;20058;-52
2021/08/14 19:20:23;;;;;;;4.88;3.78;;;;;;;27.16;41.14;100237.53;10352857;28;20369;-52
2021/08/14 19:25:25;;;;;;;4.27;3.70;;;;;;;27.13;41.37;100254.38;10350430;28;20101;-53
2021/08/14 19:30:26;;;;;;;4.18;3.78;;;;;;;27.04;41.90;100247.59;10351650;28;20990;-52
2021/08/14 19:35:27;;;;;;;4.95;4.47;;;;;;;26.96;42.39;100253.38;10352523;28;20364;-52
2021/08/14 19:40:29;;;;;;;4.80;3.92;;;;;;;26.89;43.16;100256.19;10353195;28;20461;-52
2021/08/14 19:45:31;;;;;;;4.90;4.45;;;;;;;26.84;43.53;100250.59;10360726;28;20046;-52
2021/08/14 19:50:34;;;;;;;4.85;4.40;;;;;;;26.75;44.37;100269.22;10358350;28;20434;-53
2021/08/14 19:55:37;;;;;;;5.18;4.47;;;;;;;26.61;44.69;100263.03;10357060;28;20076;-53
2021/08/14 20:00:39;;;;;;;6.82;5.15;;;;;;;26.49;45.16;100253.13;10355807;28;20096;-57
2021/08/14 20:05:40;;;;;;;6.45;5.43;;;;;;;26.44;45.61;100257.38;10353289;28;20062;-54
2021/08/14 20:10:42;;;;;;;5.55;5.05;;;;;;;26.38;45.69;100258.28;10356985;28;20415;-53
2021/08/14 20:15:43;;;;;;;8.05;6.57;;;;;;;26.33;45.70;100260.03;10348616;28;20147;-52
2021/08/14 20:20:45;;;;;;;7.78;6.72;;;;;;;26.25;46.14;100270.16;10355560;28;20156;-52
2021/08/14 20:25:46;;;;;;;7.32;5.70;;;;;;;26.10;46.45;100254.19;10355715;28;20041;-53
2021/08/14 20:30:48;;;;;;;6.85;5.43;;;;;;;26.11;46.07;100272.22;10347874;28;20060;-52
2021/08/14 20:35:49;;;;;;;7.18;5.55;;;;;;;25.96;46.64;100254.50;10348988;28;20080;-53
2021/08/14 20:40:51;;;;;;;5.43;4.35;;;;;;;25.97;47.10;100267.91;10348270;28;20135;-55
2021/08/14 20:45:53;;;;;;;5.68;4.50;;;;;;;25.91;46.98;100275.13;10351960;28;20049;-53
2021/08/14 20:50:55;;;;;;;5.88;4.80;;;;;;;25.86;47.04;100268.66;10355877;28;20094;-52
2021/08/14 20:55:56;;;;;;;4.65;4.18;;;;;;;25.76;47.33;100267.28;10353403;28;20108;-54
2021/08/14 21:00:58;;;;;;;6.10;4.20;;;;;;;25.69;47.64;100277.41;10352308;28;20106;-52
2021/08/14 21:05:59;;;;;;;8.25;4.10;;;;;;;25.64;47.73;100279.13;10350087;28;20107;-52
2021/08/14 21:11:02;;;;;;;7.38;5.68;;;;;;;25.54;48.36;100296.81;10354004;28;20046;-54
2021/08/14 21:16:24;;;;;;;6.70;6.00;;;;;;;25.41;48.96;100292.28;10351975;28;20130;-53
2021/08/14 21:21:26;;;;;;;8.13;5.85;;;;;;;25.29;48.94;100280.41;10347273;28;20084;-52
2021/08/14 21:26:27;;;;;;;12.13;10.17;;;;;;;25.29;49.11;100291.31;10343880;28;20503;-53
2021/08/14 21:31:29;;;;;;;5.28;4.68;;;;;;;25.13;48.48;100280.94;10349726;28;20100;-53
2021/08/14 21:36:30;;;;;;;5.18;3.85;;;;;;;25.08;47.86;100291.66;10346821;28;20100;-52
2021/08/14 21:41:32;;;;;;;5.60;3.95;;;;;;;24.95;47.93;100293.41;10349918;28;20117;-55
2021/08/14 21:46:33;;;;;;;5.68;4.50;;;;;;;24.81;47.17;100275.44;10353288;28;20072;-54
2021/08/14 21:51:35;;;;;;;4.78;3.22;;;;;;;24.92;46.84;100288.41;10346891;28;20133;-53
2021/08/14 21:56:37;;;;;;;5.22;3.35;;;;;;;24.90;46.51;100290.47;10366712;22;20046;-61
2021/08/14 22:01:42;;;;;;;7.28;3.60;;;;;;;24.83;46.88;100289.66;10381809;28;20521;-62
2021/08/14 22:06:44;;;;;;;5.57;3.28;;;;;;;24.77;47.23;100290.53;10390489;28;20056;-61
2021/08/14 22:11:49;;;;;;;5.93;3.72;;;;;;;24.74;47.38;100282.81;10381415;28;20042;-62
2021/08/14 22:16:51;;;;;;;6.55;3.75;;;;;;;24.63;47.60;100287.03;10372842;28;20053;-61
2021/08/14 22:21:53;;;;;;;6.13;3.28;;;;;;;24.53;47.25;100279.31;10379869;28;20140;-62
2021/08/14 22:26:54;;;;;;;5.10;3.17;;;;;;;24.45;47.01;100277.66;10373805;28;20123;-60
2021/08/14 22:31:55;;;;;;;4.97;3.78;;;;;;;24.38;46.71;100276.00;10380040;28;20069;-60
2021/08/14 22:36:57;;;;;;;6.18;3.53;;;;;;;24.29;47.00;100278.97;10380954;28;20080;-61
2021/08/14 22:41:58;;;;;;;6.07;3.50;;;;;;;24.17;46.31;100276.06;10378679;28;20049;-60
2021/08/14 22:47:00;;;;;;;5.15;3.08;;;;;;;24.16;46.84;100284.44;10378065;28;20046;-60
2021/08/14 22:52:02;;;;;;;5.63;3.20;;;;;;;24.09;46.83;100278.16;10391731;28;20081;-60
2021/08/14 22:57:04;;;;;;;5.67;3.37;;;;;;;24.01;47.17;100276.53;10376684;28;20045;-62
2021/08/14 23:02:05;;;;;;;4.70;2.92;;;;;;;23.93;46.89;100285.72;10378918;28;20077;-62
2021/08/14 23:07:07;;;;;;;6.10;3.33;;;;;;;23.83;47.00;100277.97;10375152;28;20136;-60
2021/08/14 23:12:11;;;;;;;4.43;3.40;;;;;;;23.81;47.16;100290.09;10378270;28;20042;-60